< < Back
Terminal Aerodrome Forecast


Current Version              Previous Versions:   1  2  3  4  5  6  7  8  9  

Terminal Aerodrome Forecast

819
FTUS44 KOHX 291700 AAB
TAFBNA
TAF AMD
KBNA 291703Z 2917/3012 35010KT P6SM SCT050
     FM300100 34003KT P6SM FEW060=



Latest METAR

740
SAUS70 KWBC 301700 RRC
MTRBNA
METAR KBNA 301653Z 00000KT 10SM SCT040 BKN220 OVC250 26/14 A3013 RMK AO2
SLP197 T02610139


USA.gov is the U.S. government's official web portal to all federal, state and local government web resources and services.